Bookmark and Share
Track history (hours):
 

Azure

Last reported at 2014-Apr-16 18:26 UTC. Time now 2014-Apr-17 15:36 UTC.
Position N 38°37' W 009°38'.

Length 289 m; draft 8.6 m.

Type: Ship. MMSI: 310610000.

NotesDate/timePositionNaut miles runAvg speedWind from/ knotsBaromVisibWave heightAir tempDewpointWater temp
2014-Apr-16 18:26N 38°37' W 009°38'1314.8
2014-Apr-16 17:33N 38°38' W 009°22'1212.4
2014-Apr-16 16:33N 38°43' W 009°07'0 0.2
2014-Apr-16 15:31N 38°43' W 009°07'0 0.0
2014-Apr-16 14:31N 38°43' W 009°07'0 0.0
2014-Apr-16 13:33N 38°43' W 009°07'0 0.0
2014-Apr-16 12:33N 38°43' W 009°07'0 0.0
2014-Apr-16 11:32N 38°43' W 009°07'0 0.0
2014-Apr-16 10:32N 38°43' W 009°07'0 0.0
2014-Apr-16 09:31N 38°43' W 009°07'0 0.0
2014-Apr-16 08:31N 38°43' W 009°07'0 0.0
2014-Apr-16 07:33N 38°43' W 009°07'7 7.1
2014-Apr-16 06:33N 38°41' W 009°16'1313.1
2014-Apr-16 05:32N 38°31' W 009°28'1414.2
2014-Apr-16 04:33N 38°18' W 009°33'1514.7
2014-Apr-16 03:33N 38°04' W 009°39'1615.7
2014-Apr-16 02:33N 37°49' W 009°44'16515.6
2014-Apr-15 16:00N 35°12' W 010°48'38616.8 280 / 51015.910.8 18.414.119.0
2014-Apr-14 17:00N 29°06' W 013°12'   360 / 111014.510.8 0.518.814.321.0
2014-Apr-11 18:32N 32°17' W 016°59'1414.9
2014-Apr-11 17:33N 32°31' W 016°56'8 7.6
2014-Apr-11 16:33N 32°39' W 016°54'0 0.0
2014-Apr-11 15:32N 32°39' W 016°54'0 0.0
2014-Apr-11 14:31N 32°39' W 016°54'0 0.0
2014-Apr-11 12:32N 32°39' W 016°54'0 0.0
2014-Apr-11 11:32N 32°39' W 016°54'0 0.0
2014-Apr-11 10:31N 32°39' W 016°54'0 0.0
2014-Apr-11 09:32N 32°39' W 016°54'0 0.0
2014-Apr-11 08:31N 32°39' W 016°54'0 0.0
2014-Apr-11 07:31N 32°39' W 016°54'0 0.0
2014-Apr-11 06:33N 32°39' W 016°54'4 4.3
2014-Apr-11 05:34N 32°37' W 016°50'28315.2
2014-Apr-10 11:00N 36°48' W 014°12'26715.7 330 / 131018.1 5.4 0.514.5 8.617.0
2014-Apr-09 18:00N 40°54' W 012°00'39316.4 060 / 101013.8 5.4 0.510.910.514.0
2014-Apr-08 18:00N 46°42' W 007°48'11416.2 320 / 41028.510.8 0.510.3 7.212.0
2014-Apr-08 11:00N 48°18' W 006°18'21314.8 290 / 221026.810.8 2.010.5 6.213.0
2014-Apr-07 20:34N 50°18' W 001°48'1716.9
2014-Apr-07 19:34N 50°26' W 001°24'2211.2
2014-Apr-07 17:34N 50°45' W 001°08'1010.1
2014-Apr-07 16:33N 50°51' W 001°21'3 3.1
2014-Apr-07 15:31N 50°54' W 001°24'0 0.0
2014-Apr-07 14:31N 50°54' W 001°24'0 0.0
2014-Apr-07 13:33N 50°54' W 001°24'0 0.0
2014-Apr-07 12:33N 50°54' W 001°24'0 0.0
2014-Apr-07 11:33N 50°54' W 001°24'0 0.0
2014-Apr-07 10:32N 50°54' W 001°24'0 0.0
2014-Apr-07 09:32N 50°54' W 001°24'0 0.0
2014-Apr-07 08:31N 50°54' W 001°24'0 0.0
2014-Apr-07 07:31N 50°54' W 001°24'0 0.0
2014-Apr-07 06:34N 50°54' W 001°24'1 0.6
2014-Apr-07 05:33N 50°53' W 001°24'8 7.8
2014-Apr-07 04:34N 50°47' W 001°17'1313.1
2014-Apr-07 03:34N 50°40' W 000°59'1414.4
2014-Apr-07 02:34N 50°36' W 000°37'1816.8
2014-Apr-07 01:28N 50°33' W 000°09'1416.0
2014-Apr-07 00:33N 50°35' E 000°14'1616.0
2014-Apr-06 23:33N 50°40' E 000°38'1716.5
2014-Apr-06 22:33N 50°49' E 000°60'1717.4
2014-Apr-06 21:34N 51°01' E 001°20'1716.6
2014-Apr-06 20:33N 51°11' E 001°40'1615.6
2014-Apr-06 19:33N 51°23' E 001°56'1515.4
2014-Apr-06 18:33N 51°21' E 002°20'  

Dump ship's entire track history

sailing weather and tide predictions

Azure — ZCEE2 — position and weather